Time;durP1;ratioP1;P1;durP2;ratioP2;P2;SDS_P1;SDS_P2;PMS_P1;PMS_P2;Temp;Humidity;BMP_temperature;BMP_pressure;BME280_temperature;BME280_humidity;BME280_pressure;Samples;Min_cycle;Max_cycle;Signal;HPM_P1;HPM_P2
2021/05/10 00:01:32;;;;;;;13.32;10.32;;;17.20;89.40;;;;;;5108209;28;20058;-45
2021/05/10 00:03:58;;;;;;;14.98;11.18;;;17.20;89.00;;;;;;5108423;28;20062;-47
2021/05/10 00:06:27;;;;;;;11.98;10.35;;;17.20;89.10;;;;;;5108218;28;20102;-47
2021/05/10 00:08:55;;;;;;;12.63;11.38;;;17.20;89.10;;;;;;5107591;28;20414;-45
2021/05/10 00:11:21;;;;;;;10.75;9.75;;;17.10;89.40;;;;;;5089457;28;20529;-45
2021/05/10 00:13:50;;;;;;;12.63;11.00;;;17.00;89.80;;;;;;5107808;28;20605;-44
2021/05/10 00:16:16;;;;;;;13.27;10.80;;;17.00;90.00;;;;;;5111721;28;20079;-45
2021/05/10 00:18:43;;;;;;;12.40;11.18;;;16.90;90.00;;;;;;5108269;28;21031;-45
2021/05/10 00:21:09;;;;;;;12.20;10.68;;;16.90;90.00;;;;;;5107766;28;20133;-46
2021/05/10 00:23:35;;;;;;;12.00;10.20;;;16.90;90.10;;;;;;5107973;28;20082;-45
2021/05/10 00:26:02;;;;;;;11.38;10.18;;;16.90;90.00;;;;;;5108191;28;20058;-45
2021/05/10 00:28:28;;;;;;;11.02;9.80;;;16.80;90.10;;;;;;5107830;28;20048;-46
2021/05/10 00:30:55;;;;;;;10.40;9.32;;;16.80;90.00;;;;;;5106958;28;20058;-44
2021/05/10 00:33:21;;;;;;;12.35;10.00;;;16.80;90.00;;;;;;5108350;28;20044;-44
2021/05/10 00:35:47;;;;;;;12.23;10.38;;;16.80;89.90;;;;;;5107504;28;20044;-44
2021/05/10 00:38:13;;;;;;;10.52;9.52;;;16.80;89.80;;;;;;5109718;28;20040;-45
2021/05/10 00:40:39;;;;;;;12.48;10.35;;;16.80;89.90;;;;;;5107226;28;20054;-44
2021/05/10 00:43:06;;;;;;;12.13;10.70;;;16.80;89.80;;;;;;5107649;28;20495;-46
2021/05/10 00:45:33;;;;;;;12.10;10.25;;;16.80;89.90;;;;;;5108141;28;20052;-45
2021/05/10 00:47:59;;;;;;;13.73;10.85;;;16.80;90.00;;;;;;5108170;28;20702;-44
2021/05/10 00:50:25;;;;;;;11.50;10.25;;;16.90;90.00;;;;;;5109222;28;20046;-45
2021/05/10 00:52:51;;;;;;;10.70;9.23;;;16.80;89.90;;;;;;5107637;28;20403;-45
2021/05/10 00:55:18;;;;;;;11.70;10.48;;;16.80;89.80;;;;;;5110755;28;20043;-45
2021/05/10 00:57:53;;;;;;;11.95;9.98;;;16.80;90.00;;;;;;5108230;28;20044;-44
2021/05/10 01:00:26;;;;;;;11.90;10.23;;;16.80;90.10;;;;;;5106996;28;20055;-45
2021/05/10 01:03:09;;;;;;;15.13;10.77;;;16.80;90.10;;;;;;5107501;28;20051;-46
2021/05/10 01:05:38;;;;;;;11.70;10.60;;;16.70;90.30;;;;;;5107368;28;20146;-49
2021/05/10 01:08:07;;;;;;;12.43;10.85;;;16.70;90.30;;;;;;5106691;28;20387;-45
2021/05/10 01:10:34;;;;;;;12.50;11.30;;;16.70;90.50;;;;;;5109923;28;20048;-48
2021/05/10 01:13:00;;;;;;;12.38;11.27;;;16.60;90.50;;;;;;5107940;28;20052;-45
2021/05/10 01:15:26;;;;;;;12.30;11.02;;;16.60;90.60;;;;;;5106278;28;20059;-44
2021/05/10 01:18:04;;;;;;;12.80;11.55;;;16.60;90.60;;;;;;5107308;28;20044;-46
2021/05/10 01:20:33;;;;;;;12.90;11.50;;;16.50;90.60;;;;;;5106197;28;20203;-45
2021/05/10 01:23:00;;;;;;;12.55;11.35;;;16.50;90.70;;;;;;5107370;28;20060;-45
2021/05/10 01:25:31;;;;;;;13.15;11.85;;;16.50;90.80;;;;;;5106854;28;20059;-47
2021/05/10 01:27:59;;;;;;;12.95;11.65;;;16.50;91.10;;;;;;5107336;28;20055;-45
2021/05/10 01:30:40;;;;;;;12.85;11.65;;;16.50;90.80;;;;;;5105447;28;20058;-45
2021/05/10 01:33:08;;;;;;;13.20;11.63;;;16.50;91.00;;;;;;5114297;28;20051;-45
2021/05/10 01:35:41;;;;;;;14.50;13.00;;;16.50;91.00;;;;;;5106610;28;20154;-45
2021/05/10 01:38:08;;;;;;;12.57;11.35;;;16.50;91.10;;;;;;5105976;28;20510;-46
2021/05/10 01:40:35;;;;;;;12.68;10.27;;;16.60;91.00;;;;;;5105669;28;20051;-45
2021/05/10 01:43:03;;;;;;;10.85;9.75;;;16.60;90.80;;;;;;5105916;28;20503;-44
2021/05/10 01:45:29;;;;;;;11.13;10.13;;;16.60;90.70;;;;;;5106990;28;20087;-45
2021/05/10 01:48:04;;;;;;;12.27;10.45;;;16.60;90.70;;;;;;5106564;28;20505;-46
2021/05/10 01:50:50;;;;;;;11.05;9.20;;;16.60;91.10;;;;;;5091194;28;20083;-44
2021/05/10 01:53:17;;;;;;;11.40;9.65;;;16.60;90.70;;;;;;5109530;28;20039;-44
2021/05/10 01:55:43;;;;;;;12.38;9.68;;;16.60;90.70;;;;;;5106256;28;20633;-45
2021/05/10 01:58:10;;;;;;;10.65;9.55;;;16.70;90.70;;;;;;5113117;28;20050;-45
2021/05/10 02:00:44;;;;;;;9.95;9.02;;;16.70;90.70;;;;;;5106282;28;20147;-46
2021/05/10 02:03:15;;;;;;;11.07;9.98;;;16.70;90.60;;;;;;5089166;28;20380;-48
2021/05/10 02:05:46;;;;;;;11.55;9.45;;;16.70;90.60;;;;;;5106071;28;20534;-46
2021/05/10 02:08:13;;;;;;;11.10;10.00;;;16.70;90.70;;;;;;5106745;28;20044;-46
2021/05/10 02:10:41;;;;;;;10.70;9.65;;;16.60;90.70;;;;;;5105467;28;20048;-47
2021/05/10 02:13:12;;;;;;;11.32;10.32;;;16.70;90.80;;;;;;5106984;28;20047;-46
2021/05/10 02:15:39;;;;;;;12.67;9.70;;;16.70;90.80;;;;;;5107437;28;20056;-44
2021/05/10 02:18:07;;;;;;;13.50;9.18;;;16.70;90.80;;;;;;5112237;28;20300;-45
2021/05/10 02:20:37;;;;;;;11.02;9.98;;;16.70;90.70;;;;;;5109646;28;20078;-45
2021/05/10 02:23:10;;;;;;;11.35;9.65;;;16.70;90.70;;;;;;5109782;28;20052;-45
2021/05/10 02:25:39;;;;;;;10.48;9.18;;;16.70;90.90;;;;;;5109523;28;20756;-46
2021/05/10 02:28:06;;;;;;;10.85;9.20;;;16.70;90.80;;;;;;5109868;28;20054;-44
2021/05/10 02:30:34;;;;;;;9.98;8.98;;;16.70;90.80;;;;;;5109626;28;20058;-47
2021/05/10 02:33:03;;;;;;;11.13;9.93;;;16.70;90.80;;;;;;5110142;28;20047;-44
2021/05/10 02:35:47;;;;;;;9.77;8.77;;;16.70;90.90;;;;;;5110181;28;20476;-46
2021/05/10 02:38:14;;;;;;;9.57;8.60;;;16.70;90.90;;;;;;5109823;28;20047;-45
2021/05/10 02:40:42;;;;;;;10.48;9.48;;;16.70;90.80;;;;;;5109742;28;20418;-45
2021/05/10 02:43:26;;;;;;;11.70;10.57;;;16.70;90.80;;;;;;5110632;28;20055;-45
2021/05/10 02:45:52;;;;;;;12.10;10.98;;;16.70;90.80;;;;;;5092204;28;20552;-44
2021/05/10 02:48:19;;;;;;;10.75;9.65;;;16.70;90.70;;;;;;5110152;28;20059;-46
2021/05/10 02:50:45;;;;;;;10.40;9.40;;;16.70;90.60;;;;;;5109586;28;20047;-46
2021/05/10 02:53:31;;;;;;;10.98;9.95;;;16.80;90.60;;;;;;5094629;28;20052;-44
2021/05/10 02:56:00;;;;;;;11.23;10.13;;;16.70;90.70;;;;;;5110252;28;20058;-47
2021/05/10 02:58:26;;;;;;;12.80;10.73;;;16.70;90.80;;;;;;5109538;28;20052;-46
2021/05/10 03:00:52;;;;;;;11.63;10.35;;;16.60;90.90;;;;;;5108568;28;20052;-44
2021/05/10 03:03:18;;;;;;;11.85;10.52;;;16.60;91.10;;;;;;5109863;28;20055;-45
2021/05/10 03:05:45;;;;;;;11.50;10.30;;;16.60;91.20;;;;;;5110011;28;20051;-45
2021/05/10 03:08:11;;;;;;;11.88;10.77;;;16.60;91.20;;;;;;5117071;28;20054;-44
2021/05/10 03:10:38;;;;;;;12.60;11.07;;;16.60;91.30;;;;;;5109194;28;20175;-45
2021/05/10 03:13:04;;;;;;;12.68;10.88;;;16.60;91.20;;;;;;5109702;28;20070;-46
2021/05/10 03:15:30;;;;;;;13.38;11.85;;;16.60;91.10;;;;;;5113603;28;20795;-46
2021/05/10 03:17:56;;;;;;;12.50;11.30;;;16.60;91.10;;;;;;5109565;28;20101;-46
2021/05/10 03:20:23;;;;;;;11.98;10.95;;;16.60;91.10;;;;;;5109418;28;20051;-44
2021/05/10 03:22:52;;;;;;;13.70;12.18;;;16.60;91.10;;;;;;5109751;28;20078;-47
2021/05/10 03:25:19;;;;;;;12.98;11.85;;;16.50;91.30;;;;;;5093181;28;20043;-44
2021/05/10 03:27:46;;;;;;;12.73;11.40;;;16.40;91.50;;;;;;5107235;28;20142;-45
2021/05/10 03:30:16;;;;;;;12.88;11.52;;;16.50;91.50;;;;;;5107957;28;20096;-45
2021/05/10 03:32:44;;;;;;;12.52;11.27;;;16.50;91.40;;;;;;5108980;28;20499;-45
2021/05/10 03:35:12;;;;;;;14.63;11.60;;;16.60;91.30;;;;;;5108554;28;20048;-46
2021/05/10 03:37:40;;;;;;;12.73;11.43;;;16.60;91.30;;;;;;5111118;28;20053;-45
2021/05/10 03:40:10;;;;;;;12.75;11.25;;;16.60;91.20;;;;;;5108347;28;20039;-44
2021/05/10 03:42:38;;;;;;;12.73;11.43;;;16.60;91.10;;;;;;5114368;28;20043;-44
2021/05/10 03:45:06;;;;;;;14.20;11.00;;;16.60;91.10;;;;;;5108849;28;20487;-45
2021/05/10 03:47:39;;;;;;;11.32;9.90;;;16.70;90.90;;;;;;5108752;28;20498;-45
2021/05/10 03:50:13;;;;;;;12.38;10.65;;;16.70;91.00;;;;;;5107506;28;20133;-45
2021/05/10 03:52:40;;;;;;;11.25;10.15;;;16.60;91.00;;;;;;5106817;28;20134;-44
2021/05/10 03:55:09;;;;;;;11.95;10.65;;;16.60;91.00;;;;;;5108172;28;20108;-47
2021/05/10 03:57:35;;;;;;;11.98;10.38;;;16.60;91.00;;;;;;5108925;28;20055;-45
2021/05/10 04:00:09;;;;;;;11.70;9.80;;;16.60;90.90;;;;;;5109269;28;20059;-46
2021/05/10 04:02:38;;;;;;;11.30;10.25;;;16.60;90.70;;;;;;5109327;28;20728;-46
2021/05/10 04:16:00;;;;;;;6.95;5.05;;;16.80;89.00;;;;;;5108551;28;20059;-45
2021/05/10 04:18:26;;;;;;;6.43;5.15;;;16.90;87.80;;;;;;5115973;28;20047;-46
2021/05/10 04:20:52;;;;;;;9.25;4.72;;;16.90;87.30;;;;;;5107346;28;20048;-45
2021/05/10 04:23:19;;;;;;;6.82;4.70;;;17.00;86.30;;;;;;5111511;28;20043;-45
2021/05/10 04:25:47;;;;;;;6.47;4.32;;;17.00;86.00;;;;;;5108145;28;20567;-46
2021/05/10 04:28:14;;;;;;;8.07;4.97;;;17.10;85.70;;;;;;5108183;28;20132;-46
2021/05/10 04:30:41;;;;;;;6.45;3.92;;;17.00;85.20;;;;;;5113788;28;20040;-45
2021/05/10 04:33:07;;;;;;;9.07;3.85;;;17.10;84.90;;;;;;5107752;28;20043;-47
2021/05/10 04:35:34;;;;;;;5.90;3.78;;;17.10;84.60;;;;;;5108000;28;20054;-44
2021/05/10 04:38:04;;;;;;;5.75;3.20;;;17.10;83.90;;;;;;5107855;28;20059;-44
2021/05/10 04:40:36;;;;;;;6.97;3.30;;;17.30;83.60;;;;;;5107394;28;20096;-45
2021/05/10 04:43:03;;;;;;;7.43;3.40;;;17.30;83.30;;;;;;5108507;28;20049;-46
2021/05/10 04:45:35;;;;;;;7.97;2.58;;;17.40;82.60;;;;;;5106321;28;20051;-46
2021/05/10 04:48:01;;;;;;;5.93;3.33;;;17.40;81.80;;;;;;5109920;28;20154;-46
2021/05/10 04:50:30;;;;;;;7.53;3.22;;;17.50;80.50;;;;;;5107490;28;20043;-48
2021/05/10 04:52:56;;;;;;;6.40;2.50;;;17.50;81.10;;;;;;5106993;27;20126;-46
2021/05/10 04:55:22;;;;;;;5.25;2.70;;;17.50;80.40;;;;;;5107582;28;20240;-46
2021/05/10 04:57:48;;;;;;;4.15;2.25;;;17.70;80.40;;;;;;5108096;28;20050;-46
2021/05/10 05:00:15;;;;;;;5.72;2.30;;;17.80;79.50;;;;;;5109624;28;20063;-46
2021/05/10 05:02:42;;;;;;;5.93;2.40;;;17.90;78.60;;;;;;5106555;28;20701;-47
2021/05/10 05:05:10;;;;;;;4.72;2.20;;;18.00;78.30;;;;;;5106568;28;20392;-49
2021/05/10 05:07:39;;;;;;;6.50;2.05;;;18.10;77.70;;;;;;5106947;28;20059;-47
2021/05/10 05:10:07;;;;;;;6.35;2.15;;;18.20;77.10;;;;;;5106776;28;20047;-47
2021/05/10 05:12:37;;;;;;;4.90;1.80;;;18.30;76.50;;;;;;5105782;28;20792;-45
2021/05/10 05:15:09;;;;;;;5.47;2.40;;;18.50;75.80;;;;;;5105943;28;20059;-47
2021/05/10 05:17:37;;;;;;;3.58;1.98;;;18.90;75.20;;;;;;5106719;28;20079;-45
2021/05/10 05:20:04;;;;;;;3.67;2.03;;;19.10;74.40;;;;;;5107575;28;20072;-48
2021/05/10 05:22:31;;;;;;;6.35;2.40;;;19.10;73.20;;;;;;5105929;28;20075;-46
2021/05/10 05:24:57;;;;;;;4.05;1.70;;;19.10;74.00;;;;;;5107897;27;20860;-47
2021/05/10 05:27:25;;;;;;;5.07;2.03;;;19.10;74.60;;;;;;5106251;28;20059;-47
2021/05/10 05:29:52;;;;;;;6.22;1.75;;;19.10;74.40;;;;;;5114333;27;20051;-46
2021/05/10 05:32:21;;;;;;;6.38;1.75;;;19.20;73.80;;;;;;5127189;27;20076;-48
2021/05/10 05:34:47;;;;;;;5.70;1.80;;;19.10;73.50;;;;;;5126745;27;20134;-47
2021/05/10 05:37:13;;;;;;;3.80;1.92;;;19.30;72.60;;;;;;5106411;27;20059;-46
2021/05/10 05:39:40;;;;;;;6.57;1.60;;;19.30;72.40;;;;;;5088819;28;20134;-47
2021/05/10 05:42:07;;;;;;;5.03;2.00;;;19.40;72.00;;;;;;5114781;27;20067;-46
2021/05/10 05:44:36;;;;;;;4.68;1.90;;;19.70;71.50;;;;;;5117836;27;20039;-47
2021/05/10 05:47:05;;;;;;;3.65;1.80;;;20.00;71.30;;;;;;5106159;28;20055;-48
2021/05/10 05:49:34;;;;;;;4.07;1.65;;;20.20;71.30;;;;;;5106026;28;20044;-46
2021/05/10 05:52:05;;;;;;;7.07;1.88;;;20.30;70.30;;;;;;5106414;28;20223;-47
2021/05/10 05:54:33;;;;;;;2.60;1.75;;;20.30;69.50;;;;;;5099198;28;20048;-47
2021/05/10 05:56:59;;;;;;;5.18;1.65;;;20.40;69.30;;;;;;5080185;28;20044;-46
2021/05/10 05:59:26;;;;;;;3.67;1.65;;;20.40;68.20;;;;;;5084433;28;20416;-48
2021/05/10 06:01:52;;;;;;;3.50;2.08;;;20.30;67.50;;;;;;5082491;28;20040;-44
2021/05/10 06:04:18;;;;;;;4.90;2.00;;;20.40;68.40;;;;;;5108033;28;20471;-46
2021/05/10 06:06:44;;;;;;;6.55;2.10;;;20.40;67.80;;;;;;5097668;28;20143;-46
2021/05/10 06:09:21;;;;;;;4.22;1.73;;;20.50;67.20;;;;;;5088792;28;20051;-46
2021/05/10 06:11:48;;;;;;;2.92;1.40;;;20.50;66.00;;;;;;5098403;28;20039;-46
2021/05/10 06:14:14;;;;;;;5.95;2.35;;;20.40;66.80;;;;;;5099362;28;20036;-46
2021/05/10 06:16:40;;;;;;;4.10;2.08;;;20.20;67.00;;;;;;5090353;28;20039;-46
2021/05/10 06:19:09;;;;;;;8.18;2.55;;;20.10;67.00;;;;;;5086403;28;20051;-44
2021/05/10 06:21:35;;;;;;;8.00;3.15;;;20.10;67.30;;;;;;5089236;28;20048;-44
2021/05/10 06:24:04;;;;;;;8.13;3.58;;;19.90;67.40;;;;;;5090723;28;20088;-44
2021/05/10 06:26:31;;;;;;;3.30;2.00;;;19.90;67.00;;;;;;5107077;28;20110;-46
2021/05/10 06:28:57;;;;;;;4.88;3.38;;;19.80;68.10;;;;;;5101309;28;20067;-46
2021/05/10 06:31:23;;;;;;;4.15;1.67;;;19.80;67.20;;;;;;5099650;28;20067;-45
2021/05/10 06:33:49;;;;;;;6.65;1.90;;;19.80;68.00;;;;;;5091674;28;20072;-47
2021/05/10 06:36:15;;;;;;;4.47;2.65;;;19.80;67.90;;;;;;5093147;28;20494;-47
2021/05/10 06:38:44;;;;;;;4.32;1.50;;;19.90;67.50;;;;;;5085180;28;20048;-45
2021/05/10 06:41:11;;;;;;;7.72;1.95;;;19.90;67.10;;;;;;5095659;28;20415;-46
2021/05/10 06:43:37;;;;;;;5.30;1.67;;;19.90;67.90;;;;;;5086945;28;20521;-52
2021/05/10 06:46:04;;;;;;;9.02;3.92;;;19.90;67.90;;;;;;5107957;27;20071;-51
2021/05/10 06:48:32;;;;;;;5.55;1.73;;;19.90;67.30;;;;;;5085902;28;20538;-48
2021/05/10 06:51:01;;;;;;;7.85;4.20;;;20.00;67.60;;;;;;5088297;28;20052;-49
2021/05/10 06:53:29;;;;;;;5.47;2.35;;;20.00;67.50;;;;;;5100384;28;20869;-47
2021/05/10 06:55:56;;;;;;;4.53;2.42;;;20.20;67.40;;;;;;5090926;28;20055;-48
2021/05/10 06:58:23;;;;;;;8.05;3.15;;;20.20;66.70;;;;;;5091557;28;20044;-46
2021/05/10 07:00:54;;;;;;;5.38;2.40;;;20.20;65.90;;;;;;5102668;28;20047;-48
2021/05/10 07:03:21;;;;;;;5.68;1.98;;;20.20;66.80;;;;;;5107565;27;20043;-46
2021/05/10 07:05:51;;;;;;;10.55;6.82;;;20.50;67.40;;;;;;5071883;28;20504;-45
2021/05/10 07:08:18;;;;;;;5.18;2.42;;;20.50;66.00;;;;;;5104928;27;20054;-49
2021/05/10 07:10:51;;;;;;;8.70;4.43;;;20.40;66.20;;;;;;5105882;27;20047;-44
2021/05/10 07:13:23;;;;;;;6.43;2.10;;;20.50;65.40;;;;;;5108898;28;20074;-50
2021/05/10 07:15:50;;;;;;;7.35;3.22;;;20.70;64.80;;;;;;5099421;27;20059;-49
2021/05/10 07:18:18;;;;;;;8.13;2.75;;;20.60;66.30;;;;;;5092688;28;20545;-46
2021/05/10 07:20:45;;;;;;;6.13;1.40;;;20.50;65.60;;;;;;5089026;28;20051;-43
2021/05/10 07:23:14;;;;;;;4.60;1.17;;;20.30;64.20;;;;;;5088232;28;20055;-51
2021/05/10 07:25:45;;;;;;;5.25;1.10;;;20.10;65.00;;;;;;5093390;28;20051;-46
2021/05/10 07:28:13;;;;;;;4.40;1.05;;;20.40;65.50;;;;;;5093391;27;20056;-48
2021/05/10 07:30:43;;;;;;;6.53;1.13;;;20.70;64.10;;;;;;5101086;27;20069;-44
2021/05/10 07:33:12;;;;;;;4.32;1.48;;;20.80;63.50;;;;;;5107124;28;20054;-47
2021/05/10 07:35:38;;;;;;;5.72;1.20;;;21.00;64.00;;;;;;5105221;28;20496;-49
2021/05/10 07:38:06;;;;;;;5.68;1.17;;;21.00;63.90;;;;;;5093067;27;20134;-46
2021/05/10 07:40:32;;;;;;;5.18;1.17;;;21.20;64.10;;;;;;5091431;27;20101;-46
2021/05/10 07:43:00;;;;;;;5.88;1.42;;;21.40;64.90;;;;;;5091136;27;20043;-50
2021/05/10 07:45:29;;;;;;;6.43;1.23;;;21.30;65.20;;;;;;5099147;27;20478;-47
2021/05/10 07:47:56;;;;;;;12.50;3.38;;;21.10;65.90;;;;;;5096902;27;20412;-47
2021/05/10 07:50:24;;;;;;;4.97;3.10;;;21.00;67.90;;;;;;5104900;27;20058;-49
2021/05/10 07:52:51;;;;;;;5.57;2.88;;;20.60;68.50;;;;;;5107469;28;20452;-46
2021/05/10 07:55:19;;;;;;;6.15;4.15;;;20.20;68.60;;;;;;5106973;27;20377;-48
2021/05/10 07:57:46;;;;;;;4.10;2.35;;;19.90;68.90;;;;;;5104149;27;20526;-46
2021/05/10 08:00:19;;;;;;;6.63;1.85;;;19.60;69.80;;;;;;5105523;27;20122;-49
2021/05/10 08:02:48;;;;;;;2.70;0.88;;;19.40;70.20;;;;;;5103369;27;20051;-47
2021/05/10 08:05:14;;;;;;;3.00;1.27;;;19.10;69.40;;;;;;5104666;28;20055;-50
2021/05/10 08:07:40;;;;;;;1.90;0.77;;;19.00;69.90;;;;;;5100009;28;20115;-47
2021/05/10 08:10:08;;;;;;;1.83;0.70;;;18.90;70.90;;;;;;5103969;27;20059;-49
2021/05/10 08:12:34;;;;;;;2.03;0.60;;;18.90;70.70;;;;;;5103576;27;20047;-48
2021/05/10 08:15:01;;;;;;;1.95;0.75;;;18.90;70.00;;;;;;5098206;28;20058;-46
2021/05/10 08:17:30;;;;;;;1.33;0.70;;;18.90;70.60;;;;;;5103304;28;20138;-48
2021/05/10 08:19:56;;;;;;;2.75;0.73;;;19.00;70.20;;;;;;5105535;28;20062;-47
2021/05/10 08:22:22;;;;;;;7.20;4.78;;;19.10;70.60;;;;;;5094724;27;20054;-47
2021/05/10 08:24:48;;;;;;;5.97;2.90;;;19.30;69.90;;;;;;5088051;27;20048;-46
2021/05/10 08:27:14;;;;;;;4.35;1.75;;;19.60;70.60;;;;;;5107285;27;20829;-46
2021/05/10 08:29:40;;;;;;;3.17;1.45;;;19.60;70.40;;;;;;5102317;27;20062;-47
2021/05/10 08:32:07;;;;;;;2.67;1.20;;;19.80;70.90;;;;;;5099430;28;20129;-46
2021/05/10 08:34:33;;;;;;;4.07;1.60;;;19.80;69.60;;;;;;5100959;28;20127;-46
2021/05/10 08:36:59;;;;;;;2.53;0.80;;;19.60;70.00;;;;;;5106454;28;20052;-46
2021/05/10 08:39:25;;;;;;;4.20;1.30;;;19.40;70.50;;;;;;5104309;27;20517;-46
2021/05/10 08:41:51;;;;;;;2.78;1.17;;;19.30;71.00;;;;;;5108006;28;20066;-49
2021/05/10 08:44:19;;;;;;;1.27;0.93;;;19.10;73.10;;;;;;5099116;28;20036;-46
2021/05/10 08:46:45;;;;;;;1.50;1.00;;;19.10;72.90;;;;;;5098608;28;20052;-46
2021/05/10 08:49:12;;;;;;;1.98;1.00;;;19.10;73.10;;;;;;5116186;27;20066;-46
2021/05/10 08:51:39;;;;;;;7.43;5.57;;;19.10;72.80;;;;;;5128234;27;20051;-47
2021/05/10 08:54:25;;;;;;;20.77;17.58;;;19.40;72.90;;;;;;5108616;27;20043;-46
2021/05/10 08:56:56;;;;;;;10.27;8.90;;;19.60;72.70;;;;;;5093883;27;20047;-45
2021/05/10 08:59:25;;;;;;;3.15;2.17;;;19.50;73.00;;;;;;5106672;28;20058;-47
2021/05/10 09:01:59;;;;;;;5.47;2.20;;;19.40;72.30;;;;;;5104217;27;20730;-49
2021/05/10 09:04:41;;;;;;;2.45;1.48;;;19.30;72.50;;;;;;5097946;27;20056;-47
2021/05/10 09:07:18;;;;;;;2.85;1.17;;;19.20;72.50;;;;;;5101930;27;20056;-46
2021/05/10 09:09:58;;;;;;;1.77;1.05;;;19.20;73.00;;;;;;5102642;28;20120;-47
2021/05/10 09:12:44;;;;;;;11.32;9.10;;;19.30;71.50;;;;;;5111874;28;20092;-47
2021/05/10 09:15:28;;;;;;;16.35;11.43;;;19.70;70.90;;;;;;5103460;28;20055;-49
2021/05/10 09:17:58;;;;;;;9.07;6.15;;;20.10;69.40;;;;;;5099864;28;20104;-47
2021/05/10 09:20:26;;;;;;;4.00;2.05;;;20.80;68.10;;;;;;5107033;28;20101;-49
2021/05/10 09:22:57;;;;;;;3.75;1.92;;;20.80;66.90;;;;;;5106788;28;20055;-48
2021/05/10 09:25:35;;;;;;;3.10;1.33;;;21.00;65.30;;;;;;5085734;28;20151;-48
2021/05/10 09:28:19;;;;;;;2.42;1.30;;;21.00;64.40;;;;;;5088308;28;20725;-48
2021/05/10 09:30:54;;;;;;;12.77;1.38;;;20.70;64.20;;;;;;5097103;27;20551;-48
2021/05/10 09:33:22;;;;;;;3.72;1.13;;;20.40;66.30;;;;;;5098000;27;20048;-49
2021/05/10 09:35:49;;;;;;;4.43;1.10;;;20.30;66.90;;;;;;5103172;27;20052;-47
2021/05/10 09:38:19;;;;;;;4.40;1.40;;;20.10;66.30;;;;;;5089526;28;20134;-48
2021/05/10 09:40:51;;;;;;;1.85;1.08;;;20.10;68.20;;;;;;5090551;28;20040;-49
2021/05/10 09:43:23;;;;;;;2.38;1.30;;;20.00;68.10;;;;;;5097660;28;20155;-47
2021/05/10 09:45:59;;;;;;;2.45;1.30;;;19.80;68.20;;;;;;5104494;27;20042;-50
2021/05/10 09:48:27;;;;;;;2.38;1.15;;;19.80;69.80;;;;;;5110093;27;20134;-50
2021/05/10 09:51:00;;;;;;;4.78;1.50;;;19.70;69.00;;;;;;5100529;27;20048;-47
2021/05/10 09:53:41;;;;;;;3.85;1.05;;;19.90;68.80;;;;;;5093740;28;20105;-46
2021/05/10 09:56:10;;;;;;;4.43;1.80;;;20.10;68.80;;;;;;5100101;28;20441;-48
2021/05/10 09:58:43;;;;;;;26.30;23.20;;;20.20;69.90;;;;;;5105381;28;20055;-49
2021/05/10 10:01:13;;;;;;;5.25;1.98;;;20.40;68.10;;;;;;5096078;28;20508;-46
2021/05/10 10:03:47;;;;;;;10.25;2.00;;;20.20;67.90;;;;;;5095582;28;20098;-46
2021/05/10 10:06:15;;;;;;;22.02;2.58;;;20.40;67.20;;;;;;5093348;28;20510;-46
2021/05/10 10:08:44;;;;;;;5.18;1.45;;;20.50;67.40;;;;;;5102506;28;20043;-48
2021/05/10 10:11:15;;;;;;;4.47;1.48;;;20.10;68.20;;;;;;5105501;28;20092;-49
2021/05/10 10:13:43;;;;;;;17.58;2.20;;;19.80;69.90;;;;;;5105540;28;20146;-48
2021/05/10 10:16:10;;;;;;;10.45;1.77;;;18.80;71.10;;;;;;5101074;28;20488;-48
2021/05/10 10:18:38;;;;;;;6.32;1.40;;;18.30;71.90;;;;;;5104072;28;20055;-45
2021/05/10 10:21:06;;;;;;;3.67;1.23;;;17.70;71.60;;;;;;5089247;28;20060;-50
2021/05/10 10:23:34;;;;;;;2.53;0.98;;;17.60;72.60;;;;;;5085766;28;20109;-50
2021/05/10 10:26:01;;;;;;;1.83;1.00;;;17.50;72.90;;;;;;5098175;28;20079;-47
2021/05/10 10:28:28;;;;;;;2.45;1.10;;;17.40;73.10;;;;;;5101413;27;20608;-47
2021/05/10 10:31:12;;;;;;;3.42;1.30;;;17.20;74.00;;;;;;5096171;28;20101;-48
2021/05/10 10:33:55;;;;;;;4.40;1.20;;;17.00;74.40;;;;;;5087015;28;20362;-44
2021/05/10 10:36:31;;;;;;;0.95;0.82;;;17.00;75.50;;;;;;5099541;28;20048;-46
2021/05/10 10:39:19;;;;;;;8.25;5.82;;;17.00;75.60;;;;;;5090137;28;20071;-46
2021/05/10 10:41:58;;;;;;;4.40;1.95;;;17.10;75.70;;;;;;5095240;27;20138;-49
2021/05/10 10:44:49;;;;;;;5.03;3.00;;;17.30;75.30;;;;;;5109458;28;20086;-46
2021/05/10 10:47:44;;;;;;;16.02;4.10;;;17.30;75.20;;;;;;5107238;27;20062;-45
2021/05/10 10:50:14;;;;;;;4.20;2.30;;;17.40;74.70;;;;;;5098205;27;20039;-47
2021/05/10 10:52:52;;;;;;;4.05;2.17;;;17.10;74.60;;;;;;5103832;28;20104;-47
2021/05/10 10:55:24;;;;;;;3.83;1.48;;;17.30;75.10;;;;;;5108915;27;20430;-47
2021/05/10 10:57:53;;;;;;;2.90;1.83;;;17.10;75.90;;;;;;5103806;27;20046;-46
2021/05/10 11:00:20;;;;;;;3.80;1.67;;;17.00;76.30;;;;;;5109177;28;20086;-46
2021/05/10 11:02:54;;;;;;;1.90;1.63;;;17.00;77.50;;;;;;5107038;27;20485;-47
2021/05/10 11:05:24;;;;;;;3.85;1.75;;;17.00;77.30;;;;;;5093393;28;20071;-44
2021/05/10 11:07:57;;;;;;;3.00;1.52;;;17.10;77.70;;;;;;5089244;27;20051;-46
2021/05/10 11:10:42;;;;;;;4.70;1.55;;;17.20;77.00;;;;;;5089365;28;20129;-47
2021/05/10 11:13:31;;;;;;;3.58;1.45;;;17.30;76.20;;;;;;5099820;27;20044;-45
2021/05/10 11:16:04;;;;;;;1.77;1.30;;;17.20;76.10;;;;;;5089963;27;20051;-46
2021/05/10 11:18:36;;;;;;;2.55;1.05;;;17.10;76.70;;;;;;5090384;28;20357;-46
2021/05/10 11:21:05;;;;;;;3.13;1.13;;;17.10;76.30;;;;;;5105648;27;20047;-45
2021/05/10 11:23:35;;;;;;;4.30;1.20;;;17.10;76.30;;;;;;5106178;27;20051;-48
2021/05/10 11:26:04;;;;;;;3.70;1.17;;;17.10;75.80;;;;;;5109585;28;20456;-45
2021/05/10 11:28:30;;;;;;;2.03;1.08;;;17.10;76.00;;;;;;5091049;28;20040;-44
2021/05/10 11:31:08;;;;;;;3.00;1.60;;;17.20;75.70;;;;;;5095650;28;20118;-45
2021/05/10 11:33:55;;;;;;;3.92;1.40;;;17.20;76.80;;;;;;5093085;28;20055;-45
2021/05/10 11:36:25;;;;;;;5.00;1.83;;;17.10;76.60;;;;;;5095158;27;20055;-44
2021/05/10 11:38:55;;;;;;;2.85;1.52;;;17.10;76.80;;;;;;5093168;27;20052;-47
2021/05/10 11:41:31;;;;;;;3.47;1.30;;;17.20;76.50;;;;;;5089006;28;20043;-45
2021/05/10 11:44:00;;;;;;;3.58;1.45;;;17.10;77.30;;;;;;5102693;28;20089;-44
2021/05/10 11:46:37;;;;;;;4.47;1.80;;;17.20;77.40;;;;;;5097148;27;20040;-47
2021/05/10 11:49:09;;;;;;;2.80;1.88;;;17.40;76.70;;;;;;5087872;28;20491;-43
2021/05/10 11:51:40;;;;;;;3.45;1.85;;;17.30;76.20;;;;;;5108551;27;20133;-47
2021/05/10 11:54:08;;;;;;;2.83;1.90;;;17.30;76.20;;;;;;5120625;27;20047;-48
2021/05/10 11:56:41;;;;;;;4.03;2.30;;;17.30;76.80;;;;;;5108782;27;20050;-48
2021/05/10 12:01:52;;;;;;;3.95;2.90;;;17.00;77.60;;;;;;5107594;27;20135;-45
2021/05/10 12:04:30;;;;;;;9.38;7.03;;;17.00;78.40;;;;;;5102187;27;20058;-46
2021/05/10 12:06:57;;;;;;;8.00;5.65;;;17.00;79.00;;;;;;5111804;27;20055;-48
2021/05/10 12:09:35;;;;;;;7.38;5.20;;;17.10;78.90;;;;;;5108921;27;20051;-46
2021/05/10 12:12:18;;;;;;;7.05;5.32;;;17.00;78.90;;;;;;5128886;27;20055;-47
2021/05/10 12:14:54;;;;;;;4.78;3.60;;;16.90;78.90;;;;;;5092470;28;20075;-47
2021/05/10 12:17:28;;;;;;;6.03;3.35;;;16.80;79.60;;;;;;5088348;28;20044;-46
2021/05/10 12:20:09;;;;;;;32.75;27.48;;;16.70;79.00;;;;;;5088959;28;20131;-48
2021/05/10 12:22:51;;;;;;;13.05;9.07;;;16.70;79.70;;;;;;5087880;28;20052;-46
2021/05/10 12:25:17;;;;;;;10.95;9.27;;;16.60;80.30;;;;;;5082191;28;20039;-47
2021/05/10 12:28:02;;;;;;;4.63;2.83;;;16.50;78.40;;;;;;5095261;28;20046;-48
2021/05/10 12:30:41;;;;;;;8.13;3.47;;;16.50;79.00;;;;;;5108631;28;20055;-46
2021/05/10 12:33:12;;;;;;;5.40;3.10;;;16.30;81.40;;;;;;5108463;28;20063;-47
2021/05/10 12:35:49;;;;;;;6.03;3.25;;;16.30;81.50;;;;;;5112229;28;20067;-48
2021/05/10 12:38:24;;;;;;;6.88;3.20;;;16.20;82.10;;;;;;5113146;28;20766;-50
2021/05/10 12:40:51;;;;;;;29.65;25.73;;;16.30;82.30;;;;;;5105163;28;20051;-46
2021/05/10 12:43:22;;;;;;;17.48;11.63;;;16.50;82.50;;;;;;5107610;28;20167;-46
2021/05/10 12:45:57;;;;;;;6.70;4.63;;;16.40;81.70;;;;;;5107780;28;20051;-45
2021/05/10 12:48:25;;;;;;;8.32;4.70;;;16.30;81.50;;;;;;5107669;28;20535;-45
2021/05/10 12:50:52;;;;;;;5.25;3.60;;;16.40;81.20;;;;;;5114095;28;20039;-46
2021/05/10 12:53:35;;;;;;;5.05;3.15;;;16.50;81.00;;;;;;5108338;27;20046;-46
2021/05/10 12:56:07;;;;;;;50.58;41.35;;;16.70;81.10;;;;;;5098483;28;20052;-46
2021/05/10 12:58:35;;;;;;;5.95;3.70;;;16.70;79.00;;;;;;5099427;28;20110;-47
2021/05/10 13:01:16;;;;;;;5.22;2.25;;;16.60;77.60;;;;;;5107338;28;20079;-47
2021/05/10 13:03:47;;;;;;;7.90;3.90;;;16.50;78.60;;;;;;5107704;28;20056;-48
2021/05/10 13:06:28;;;;;;;5.43;2.67;;;16.40;80.20;;;;;;5106353;28;20130;-48
2021/05/10 13:08:55;;;;;;;3.78;2.63;;;16.30;80.90;;;;;;5107647;28;20362;-48